Solano, NM

12:19 PM MDT on October 01, 2014 (GMT -0600)
Tucumcari Municipal | Change Station
CLOSE
Current Station
Airport
Location: Tucumcari,
Elevation: 4065 ft
Nearby Weather Stations

Elev 4065 ft 35.18 °N, 103.60 °W | Updated 26 minutes ago

Clear
Clear
76 °F
Feels Like 76 °F
N
16
Wind Variable Wind from West

Today
High -- | Low -- °F
--% Chance of Precip.
Yesterday
High -- | Low -- °F
Precip. -- in
6:51 AM 6:40 PM
Waxing Crescent, 50% visible
Pressure 29.71 in
Visibility 10.0 miles
Clouds Clear
Dew Point 39 °F
Humidity 26%
Rainfall 0.00 in
Snow Depth 0 in , 20 in , 1 in
UV 8 out of 12
Pollen 5.90 out of 12
Air Quality Not available.
Flu Activity Not available.
METAR KTCC 301753Z AUTO 28014KT 10SM CLR 24/04 A2987 RMK AO2 SLP060 T02440039 10244 20128 58010

More Conditions Fewer Conditions

Pressure 29.71 in
Visibility 10.0 miles
Clouds Clear
Dew Point 39 °F
Humidity 26%
Rainfall 0.00 in
Snow Depth 0 in , 20 in , 1 in
UV 8 out of 12
Pollen 5.90 out of 12
Air Quality Not available.
Flu Activity Not available.
METAR KTCC 301753Z AUTO 28014KT 10SM CLR 24/04 A2987 RMK AO2 SLP060 T02440039 10244 20128 58010

More Conditions Fewer Conditions

10-Day Weather Forecast

Almanac

Astronomy

Oct. 01, 2014 Rise Set
Actual Time 6:51 AM MDT 6:40 PM MDT
Civil Twilight 6:26 AM MDT 7:05 PM MDT
Nautical Twilight 5:56 AM MDT 7:35 PM MDT
Astronomical Twilight 5:26 AM MDT 8:05 PM MDT
Moon 1:46 PM MDT No Moon Set
Length of Visible Light 12h 39m
Length of Day
11h 48m
Tomorrow will be 2m 14s shorter.
Waxing Crescent, 50% of the Moon is Illuminated
Today
Waxing Crescent
Oct 1
First Quarter
Oct 8
Full
Oct 15
Last Quarter
Oct 23
New

Today's Extremes

State Highs State Lows

Community

WunderPhotos

Upload Photos

1,758,008 photos uploaded!

WunderBlogs® & News

By Dr. Jeff Masters
Director of Meteorology, Weather Underground
By Kari Strenfel
Meteorologist, Weather Underground
By Christopher C. Burt
Weather Historian, Weather Underground
October 1, 2014
October 1, 2014
October 1, 2014

Nearby

Snow Depth

Station Depth Elevation
Sierra Blanca 0 in 10280 ft
Silver Creek Divide 20 in 9000 ft
Quemazon 1 in 9500 ft
Wesner Springs 2 in 11120 ft
Hopewell 0 in 10000 ft

Earthquake Activity

City Distance Mag. Time & Date
Trinidad, Colorado 94 miles 2.9 3:55 AM MDT
2014-09-30
Minimum magnitude displayed is 2.5.

Coastal Water Temperatures

Place Temperature
No Stations Reporting

Nearby Weather Stations